createdAt,value
2023-02-14T00:01:46.105Z,8.50
2023-02-14T00:04:15.563Z,7.60
2023-02-14T00:06:44.683Z,7.45
2023-02-14T00:09:15.180Z,8.20
2023-02-14T00:11:44.125Z,7.60
2023-02-14T00:14:32.820Z,7.15
2023-02-14T00:17:01.886Z,6.70
2023-02-14T00:19:31.502Z,7.72
2023-02-14T00:22:00.071Z,7.53
2023-02-14T00:24:28.827Z,7.78
2023-02-14T00:26:57.394Z,8.15
2023-02-14T00:29:29.900Z,7.95
2023-02-14T00:31:58.706Z,7.78
2023-02-14T00:34:27.969Z,7.20
2023-02-14T00:36:56.672Z,7.45
2023-02-14T00:39:26.065Z,6.72
2023-02-14T00:41:54.694Z,7.18
2023-02-14T00:44:23.312Z,6.78
2023-02-14T00:46:53.499Z,7.78
2023-02-14T00:49:24.971Z,6.20
2023-02-14T00:51:53.465Z,6.93
2023-02-14T00:54:22.030Z,6.97
2023-02-14T00:56:50.590Z,6.85
2023-02-14T00:59:19.275Z,7.50
2023-02-14T01:01:47.908Z,7.05
2023-02-14T01:04:18.149Z,6.63
2023-02-14T01:06:47.678Z,7.57
2023-02-14T01:09:16.281Z,7.13
2023-02-14T01:11:44.913Z,6.93
2023-02-14T01:14:13.518Z,7.40
2023-02-14T01:16:42.157Z,7.47
2023-02-14T01:19:10.719Z,7.10
2023-02-14T01:21:40.580Z,7.65
2023-02-14T01:24:09.523Z,7.30
2023-02-14T01:26:39.459Z,7.35
2023-02-14T01:29:08.383Z,7.43
2023-02-14T01:31:37.468Z,7.78
2023-02-14T01:34:06.393Z,8.02
2023-02-14T01:36:37.569Z,7.45
2023-02-14T01:39:08.822Z,8.32
2023-02-14T01:41:39.625Z,8.43
2023-02-14T01:44:24.909Z,8.63
2023-02-14T01:46:53.917Z,9.07
2023-02-14T01:49:25.640Z,9.38
2023-02-14T01:52:04.097Z,8.85
2023-02-14T01:54:37.063Z,8.55
2023-02-14T01:57:09.606Z,8.45
2023-02-14T01:59:42.871Z,8.65
2023-02-14T02:02:11.699Z,8.85
2023-02-14T02:04:43.719Z,8.10
2023-02-14T02:07:18.690Z,8.57
2023-02-14T02:09:53.737Z,9.40
2023-02-14T02:12:25.797Z,9.38
2023-02-14T02:14:56.658Z,8.95
2023-02-14T02:17:35.047Z,8.60
2023-02-14T02:20:48.573Z,8.85
2023-02-14T02:24:06.807Z,8.35
2023-02-14T02:27:26.026Z,9.20
2023-02-14T02:30:32.543Z,9.23
2023-02-14T02:33:30.891Z,8.80
2023-02-14T02:36:20.586Z,8.20
2023-02-14T02:39:01.633Z,8.88
2023-02-14T02:41:40.744Z,8.07
2023-02-14T02:44:17.652Z,8.77
2023-02-14T02:46:56.297Z,8.77
2023-02-14T02:49:52.805Z,9.25
2023-02-14T02:52:46.152Z,8.50
2023-02-14T02:55:20.967Z,8.75
2023-02-14T02:57:51.169Z,9.93
2023-02-14T03:00:21.450Z,9.20
2023-02-14T03:03:11.430Z,9.18
2023-02-14T03:05:40.756Z,9.32
2023-02-14T03:08:10.778Z,9.27
2023-02-14T03:10:41.097Z,9.15
2023-02-14T03:13:48.290Z,8.73
2023-02-14T03:16:32.666Z,8.80
2023-02-14T03:19:52.706Z,10.27
2023-02-14T03:22:33.084Z,8.77
2023-02-14T03:25:10.587Z,10.05
2023-02-14T03:27:46.379Z,9.98
2023-02-14T03:30:21.491Z,9.90
2023-02-14T03:32:58.040Z,9.93
2023-02-14T03:35:33.751Z,9.63
2023-02-14T03:38:09.194Z,9.73
2023-02-14T03:40:43.446Z,10.27
2023-02-14T03:43:20.116Z,8.73
2023-02-14T03:45:55.569Z,10.02
2023-02-14T03:48:25.863Z,9.00
2023-02-14T03:50:55.974Z,9.68
2023-02-14T03:53:29.267Z,10.55
2023-02-14T03:56:04.028Z,10.40
2023-02-14T03:58:36.701Z,10.00
2023-02-14T04:01:12.085Z,9.95
2023-02-14T04:03:43.663Z,11.07
2023-02-14T04:06:12.447Z,11.13
2023-02-14T04:08:41.082Z,10.77
2023-02-14T04:11:11.049Z,11.63
2023-02-14T04:13:40.329Z,11.05
2023-02-14T04:16:09.102Z,12.00
2023-02-14T04:18:55.394Z,11.82
2023-02-14T04:21:24.099Z,13.27
2023-02-14T04:23:52.741Z,15.32
2023-02-14T04:26:22.719Z,16.30
2023-02-14T04:28:51.298Z,17.48
2023-02-14T04:31:20.076Z,17.42
2023-02-14T04:33:51.178Z,19.40
2023-02-14T04:36:19.750Z,18.13
2023-02-14T04:38:48.274Z,19.52
2023-02-14T04:41:16.832Z,18.10
2023-02-14T04:43:46.777Z,19.27
2023-02-14T04:46:18.344Z,18.83
2023-02-14T04:48:46.910Z,20.02
2023-02-14T04:51:15.512Z,20.20
2023-02-14T04:53:44.110Z,19.88
2023-02-14T04:56:12.614Z,19.52
2023-02-14T04:58:41.203Z,20.10
2023-02-14T05:01:11.201Z,20.60
2023-02-14T05:03:39.758Z,20.45
2023-02-14T05:06:08.389Z,19.88
2023-02-14T05:08:36.975Z,19.60
2023-02-14T05:11:05.915Z,21.23
2023-02-14T05:13:36.871Z,19.65
2023-02-14T05:16:05.926Z,20.08
2023-02-14T05:18:35.899Z,19.38
2023-02-14T05:21:04.838Z,19.98
2023-02-14T05:23:33.471Z,18.05
2023-02-14T05:26:02.103Z,19.30
2023-02-14T05:28:30.672Z,18.27
2023-02-14T05:30:59.736Z,18.63
2023-02-14T05:33:28.840Z,20.27
2023-02-14T05:36:00.109Z,18.80
2023-02-14T05:38:28.711Z,18.55
2023-02-14T05:40:58.365Z,19.65
2023-02-14T05:43:27.350Z,18.45
2023-02-14T05:45:55.909Z,17.58
2023-02-14T05:48:24.776Z,17.73
2023-02-14T05:50:53.540Z,19.48
2023-02-14T05:53:23.699Z,18.52
2023-02-14T05:55:52.231Z,18.92
2023-02-14T05:58:20.804Z,19.30
2023-02-14T06:00:49.512Z,16.88
2023-02-14T06:03:18.285Z,17.88
2023-02-14T06:05:46.990Z,18.38
2023-02-14T06:08:15.573Z,18.92
2023-02-14T06:10:45.618Z,17.80
2023-02-14T06:13:14.183Z,18.77
2023-02-14T06:15:42.755Z,17.60
2023-02-14T06:18:11.332Z,18.08
2023-02-14T06:20:39.885Z,17.33
2023-02-14T06:23:08.499Z,17.88
2023-02-14T06:25:37.194Z,18.65
2023-02-14T06:28:07.183Z,17.83
2023-02-14T06:30:35.805Z,18.63
2023-02-14T06:33:04.496Z,18.95
2023-02-14T06:35:33.096Z,18.65
2023-02-14T06:38:01.709Z,17.42
2023-02-14T06:40:30.278Z,19.42
2023-02-14T06:42:58.827Z,18.27
2023-02-14T06:45:28.837Z,17.88
2023-02-14T06:47:57.389Z,18.25
2023-02-14T06:50:25.922Z,18.30
2023-02-14T06:52:54.414Z,19.67
2023-02-14T06:55:23.078Z,18.58
2023-02-14T06:57:51.706Z,18.45
2023-02-14T07:00:21.423Z,19.48
2023-02-14T07:02:51.415Z,18.40
2023-02-14T07:05:20.127Z,20.05
2023-02-14T07:07:49.033Z,19.40
2023-02-14T07:10:17.800Z,19.80
2023-02-14T07:12:46.794Z,18.83
2023-02-14T07:15:15.441Z,19.52
2023-02-14T07:17:44.223Z,18.90
2023-02-14T07:20:15.081Z,19.83
2023-02-14T07:22:43.962Z,18.75
2023-02-14T07:25:13.242Z,18.85
2023-02-14T07:27:41.921Z,19.65
2023-02-14T07:30:12.366Z,19.38
2023-02-14T07:32:41.454Z,19.42
2023-02-14T07:35:10.423Z,21.42
2023-02-14T07:37:40.365Z,19.83
2023-02-14T07:40:14.855Z,19.80
2023-02-14T07:42:43.990Z,19.20
2023-02-14T07:45:22.026Z,20.02
2023-02-14T07:47:51.978Z,20.02
2023-02-14T07:50:21.237Z,20.42
2023-02-14T07:52:51.344Z,20.20
2023-02-14T07:55:20.438Z,19.80
2023-02-14T07:57:49.996Z,20.17
2023-02-14T08:00:19.702Z,19.60
2023-02-14T08:02:49.389Z,21.05
2023-02-14T08:05:19.064Z,20.30
2023-02-14T08:07:47.715Z,20.73
2023-02-14T08:10:18.088Z,19.55
2023-02-14T08:13:01.794Z,20.33
2023-02-14T08:15:49.826Z,20.42
2023-02-14T08:18:19.573Z,22.27
2023-02-14T08:20:49.857Z,20.63
2023-02-14T08:23:20.041Z,19.60
2023-02-14T08:25:52.031Z,21.05
2023-02-14T08:28:24.384Z,21.67
2023-02-14T08:30:53.892Z,20.42
2023-02-14T08:33:22.928Z,18.77
2023-02-14T08:35:52.817Z,21.02
2023-02-14T08:38:21.616Z,20.90
2023-02-14T08:40:51.575Z,20.15
2023-02-14T08:43:20.098Z,19.70
2023-02-14T08:45:50.483Z,18.52
2023-02-14T08:48:19.059Z,19.70
2023-02-14T08:50:47.680Z,18.77
2023-02-14T08:53:16.275Z,19.70
2023-02-14T08:55:44.918Z,19.20
2023-02-14T08:58:15.258Z,19.70
2023-02-14T09:00:43.936Z,19.52
2023-02-14T09:03:12.930Z,19.15
2023-02-14T09:05:41.611Z,18.90
2023-02-14T09:08:10.228Z,18.65
2023-02-14T09:10:38.970Z,19.50
2023-02-14T09:13:07.639Z,18.67
2023-02-14T09:15:37.528Z,19.17
2023-02-14T09:18:06.395Z,18.35
2023-02-14T09:20:35.014Z,17.95
2023-02-14T09:23:03.693Z,18.95
2023-02-14T09:25:32.486Z,17.92
2023-02-14T09:28:01.128Z,19.05
2023-02-14T09:30:29.872Z,17.33
2023-02-14T09:33:00.295Z,18.42
2023-02-14T09:35:46.135Z,19.10
2023-02-14T09:38:14.686Z,17.98
2023-02-14T09:40:43.797Z,18.77
2023-02-14T09:43:22.378Z,17.80
2023-02-14T09:45:55.417Z,17.27
2023-02-14T09:48:30.757Z,18.42
2023-02-14T09:51:02.083Z,17.48
2023-02-14T09:53:33.621Z,17.33
2023-02-14T09:56:10.192Z,16.65
2023-02-14T09:58:46.965Z,17.33
2023-02-14T10:01:22.276Z,17.38
2023-02-14T10:04:07.399Z,17.85
2023-02-14T10:06:49.040Z,16.88
2023-02-14T10:09:52.021Z,15.82
2023-02-14T10:12:25.124Z,16.98
2023-02-14T10:14:56.500Z,16.45
2023-02-14T10:17:32.355Z,15.98
2023-02-14T10:20:05.771Z,15.65
2023-02-14T10:22:41.096Z,15.85
2023-02-14T10:25:19.436Z,16.02
2023-02-14T10:27:48.813Z,15.75
2023-02-14T10:30:21.295Z,16.63
2023-02-14T10:32:53.411Z,16.27
2023-02-14T10:35:32.314Z,16.05
2023-02-14T10:38:10.117Z,14.85
2023-02-14T10:40:50.171Z,15.82
2023-02-14T10:43:30.750Z,15.60
2023-02-14T10:46:07.833Z,14.88
2023-02-14T10:48:53.931Z,15.40
2023-02-14T10:51:33.872Z,14.73
2023-02-14T10:54:16.098Z,15.25
2023-02-14T10:56:49.354Z,13.52
2023-02-14T10:59:30.039Z,15.05
2023-02-14T11:02:41.945Z,14.18
2023-02-14T11:05:25.349Z,14.57
2023-02-14T11:07:56.349Z,14.43
2023-02-14T11:10:28.255Z,14.88
2023-02-14T11:12:57.106Z,13.40
2023-02-14T11:15:29.021Z,14.27
2023-02-14T11:18:18.623Z,14.77
2023-02-14T11:21:01.660Z,14.70
2023-02-14T11:23:34.969Z,14.05
2023-02-14T11:26:06.478Z,13.82
2023-02-14T11:28:36.217Z,14.68
2023-02-14T11:31:05.301Z,14.10
2023-02-14T11:33:38.944Z,13.82
2023-02-14T11:36:12.897Z,14.27
2023-02-14T11:38:44.493Z,12.95
2023-02-14T11:41:16.206Z,13.23
2023-02-14T11:43:49.118Z,13.38
2023-02-14T11:46:27.563Z,14.52
2023-02-14T11:48:59.178Z,13.73
2023-02-14T11:51:34.816Z,14.52
2023-02-14T11:54:06.681Z,13.95
2023-02-14T11:57:03.462Z,13.65
2023-02-14T11:59:36.711Z,14.18
2023-02-14T12:02:19.638Z,13.77
2023-02-14T12:04:51.088Z,14.23
2023-02-14T12:07:23.490Z,13.02
2023-02-14T12:10:24.979Z,13.70
2023-02-14T12:12:56.692Z,13.82
2023-02-14T12:15:36.727Z,13.50
2023-02-14T12:18:25.798Z,12.55
2023-02-14T12:20:59.409Z,12.90
2023-02-14T12:23:36.167Z,13.82
2023-02-14T12:26:15.146Z,12.45
2023-02-14T12:28:48.714Z,13.38
2023-02-14T12:31:17.603Z,13.38
2023-02-14T12:33:48.976Z,13.68
2023-02-14T12:36:33.519Z,13.32
2023-02-14T12:39:10.230Z,12.68
2023-02-14T12:41:50.220Z,13.35
2023-02-14T12:44:27.093Z,14.07
2023-02-14T12:47:09.331Z,13.35
2023-02-14T12:49:57.790Z,12.95
2023-02-14T12:52:45.236Z,13.15
2023-02-14T12:55:39.983Z,13.73
2023-02-14T12:58:19.331Z,13.32
2023-02-14T13:01:01.145Z,12.80
2023-02-14T13:03:51.532Z,12.88
2023-02-14T13:06:26.958Z,12.20
2023-02-14T13:09:28.247Z,12.98
2023-02-14T13:12:05.966Z,14.10
2023-02-14T13:14:53.256Z,13.00
2023-02-14T13:17:29.643Z,12.13
2023-02-14T13:20:06.743Z,12.88
2023-02-14T13:22:36.583Z,12.05
2023-02-14T13:25:14.248Z,11.68
2023-02-14T13:27:43.370Z,11.90
2023-02-14T13:30:22.575Z,11.27
2023-02-14T13:32:53.593Z,11.93
2023-02-14T13:35:24.992Z,11.43
2023-02-14T13:37:56.876Z,12.25
2023-02-14T13:40:29.218Z,11.43
2023-02-14T13:42:58.995Z,11.27
2023-02-14T13:46:03.903Z,12.60
2023-02-14T13:48:34.313Z,12.02
2023-02-14T13:51:04.760Z,11.73
2023-02-14T13:53:42.288Z,11.65
2023-02-14T13:56:33.952Z,11.50
2023-02-14T13:59:05.822Z,11.43
2023-02-14T14:01:38.992Z,11.68
2023-02-14T14:04:37.496Z,11.35
2023-02-14T14:07:25.592Z,10.68
2023-02-14T14:09:56.336Z,10.93
2023-02-14T14:12:43.664Z,11.13
2023-02-14T14:15:18.499Z,10.80
2023-02-14T14:18:07.213Z,11.15
2023-02-14T14:20:47.898Z,11.27
2023-02-14T14:23:38.458Z,11.45
2023-02-14T14:26:30.090Z,10.30
2023-02-14T14:28:59.690Z,10.82
2023-02-14T14:31:29.600Z,11.38
2023-02-14T14:34:02.466Z,10.07
2023-02-14T14:36:32.408Z,10.55
2023-02-14T14:39:01.106Z,10.60
2023-02-14T14:41:31.678Z,10.52
2023-02-14T14:44:01.239Z,11.13
2023-02-14T14:46:29.963Z,10.48
2023-02-14T14:48:58.823Z,10.93
2023-02-14T14:51:30.714Z,9.70
2023-02-14T14:54:03.254Z,11.65
2023-02-14T14:56:35.890Z,11.00
2023-02-14T14:59:26.815Z,11.15
2023-02-14T15:01:55.704Z,11.18
2023-02-14T15:04:28.512Z,11.45
2023-02-14T15:06:58.996Z,11.70
2023-02-14T15:09:34.399Z,11.75
2023-02-14T15:12:21.327Z,11.48
2023-02-14T15:14:54.669Z,11.00
2023-02-14T15:17:26.861Z,10.00
2023-02-14T15:19:59.100Z,10.15
2023-02-14T15:22:30.373Z,11.10
2023-02-14T15:25:00.445Z,10.60
2023-02-14T15:27:29.442Z,10.82
2023-02-14T15:29:59.765Z,11.15
2023-02-14T15:32:33.126Z,11.32
2023-02-14T15:35:04.636Z,9.95
2023-02-14T15:37:34.360Z,10.40
2023-02-14T15:40:06.818Z,12.23
2023-02-14T15:42:42.056Z,11.13
2023-02-14T15:45:21.274Z,10.02
2023-02-14T15:47:53.833Z,9.82
2023-02-14T15:50:26.061Z,10.32
2023-02-14T15:52:56.679Z,10.38
2023-02-14T15:55:28.618Z,10.32
2023-02-14T15:57:59.633Z,10.32
2023-02-14T16:00:28.616Z,11.70
2023-02-14T16:03:02.732Z,11.02
2023-02-14T16:05:31.290Z,10.57
2023-02-14T16:08:03.567Z,10.85
2023-02-14T16:10:35.428Z,11.15
2023-02-14T16:13:06.538Z,11.15
2023-02-14T16:15:37.087Z,10.38
2023-02-14T16:18:19.048Z,11.55
2023-02-14T16:20:51.071Z,10.43
2023-02-14T16:23:23.055Z,10.85
2023-02-14T16:25:53.182Z,11.07
2023-02-14T16:28:22.263Z,12.13
2023-02-14T16:30:56.129Z,10.50
2023-02-14T16:33:26.882Z,10.95
2023-02-14T16:35:55.925Z,10.88
2023-02-14T16:38:24.489Z,11.18
2023-02-14T16:40:55.468Z,11.10
2023-02-14T16:43:24.166Z,10.57
2023-02-14T16:45:52.896Z,11.32
2023-02-14T16:48:21.692Z,11.10
2023-02-14T16:50:50.421Z,12.05
2023-02-14T16:53:26.332Z,13.23
2023-02-14T16:55:57.936Z,12.93
2023-02-14T16:58:33.083Z,13.77
2023-02-14T17:01:01.987Z,12.43
2023-02-14T17:03:30.827Z,12.40
2023-02-14T17:06:01.062Z,13.05
2023-02-14T17:08:30.146Z,12.80
2023-02-14T17:11:02.075Z,11.80
2023-02-14T17:13:34.497Z,12.63
2023-02-14T17:16:04.576Z,13.18
2023-02-14T17:18:35.098Z,12.23
2023-02-14T17:21:04.934Z,12.05
2023-02-14T17:23:33.686Z,12.30
2023-02-14T17:26:03.939Z,12.15
2023-02-14T17:28:32.487Z,12.38
2023-02-14T17:31:01.870Z,11.48
2023-02-14T17:33:32.746Z,12.82
2023-02-14T17:36:06.684Z,11.30
2023-02-14T17:38:35.920Z,13.38
2023-02-14T17:41:14.287Z,13.07
2023-02-14T17:43:43.067Z,12.77
2023-02-14T17:46:14.109Z,13.50
2023-02-14T17:48:45.333Z,13.60
2023-02-14T17:51:16.122Z,12.38
2023-02-14T17:53:44.982Z,13.65
2023-02-14T17:56:17.948Z,13.82
2023-02-14T17:58:47.744Z,13.35
2023-02-14T18:01:18.775Z,13.38
2023-02-14T18:03:47.591Z,14.15
2023-02-14T18:06:16.294Z,13.68
2023-02-14T18:08:49.346Z,13.98
2023-02-14T18:11:21.276Z,13.38
2023-02-14T18:13:50.267Z,14.07
2023-02-14T18:16:20.088Z,13.85
2023-02-14T18:18:48.982Z,14.95
2023-02-14T18:21:20.902Z,13.00
2023-02-14T18:23:49.963Z,14.60
2023-02-14T18:26:20.268Z,13.88
2023-02-14T18:28:50.949Z,13.88
2023-02-14T18:31:20.316Z,14.88
2023-02-14T18:33:50.695Z,15.63
2023-02-14T18:36:24.105Z,14.90
2023-02-14T18:38:54.692Z,14.32
2023-02-14T18:41:25.346Z,14.38
2023-02-14T18:43:54.237Z,13.50
2023-02-14T18:46:25.384Z,14.48
2023-02-14T18:48:54.443Z,15.02
2023-02-14T18:51:24.776Z,14.60
2023-02-14T18:53:54.687Z,15.20
2023-02-14T18:56:28.611Z,14.45
2023-02-14T18:58:59.207Z,14.40
2023-02-14T19:01:30.525Z,15.20
2023-02-14T19:04:00.686Z,15.00
2023-02-14T19:06:31.795Z,16.35
2023-02-14T19:09:01.424Z,17.20
2023-02-14T19:11:33.822Z,16.05
2023-02-14T19:14:08.357Z,16.67
2023-02-14T19:16:38.655Z,17.02
2023-02-14T19:19:07.448Z,16.25
2023-02-14T19:21:36.741Z,17.08
2023-02-14T19:24:08.285Z,16.88
2023-02-14T19:26:40.953Z,17.10
2023-02-14T19:29:11.290Z,17.20
2023-02-14T19:31:42.446Z,16.38
2023-02-14T19:34:17.521Z,16.33
2023-02-14T19:36:46.471Z,15.77
2023-02-14T19:39:15.956Z,15.23
2023-02-14T19:41:46.693Z,15.88
2023-02-14T19:44:17.052Z,16.83
2023-02-14T19:46:47.847Z,17.27
2023-02-14T19:49:19.094Z,16.00
2023-02-14T19:51:48.645Z,16.45
2023-02-14T19:54:17.164Z,17.75
2023-02-14T19:56:47.865Z,16.83
2023-02-14T19:59:20.126Z,16.40
2023-02-14T20:01:50.970Z,16.17
2023-02-14T20:04:22.242Z,16.52
2023-02-14T20:06:51.415Z,16.05
2023-02-14T20:09:21.704Z,17.58
2023-02-14T20:11:54.407Z,16.88
2023-02-14T20:14:24.878Z,16.83
2023-02-14T20:16:54.713Z,17.63
2023-02-14T20:19:26.938Z,16.92
2023-02-14T20:21:58.076Z,17.55
2023-02-14T20:24:29.299Z,18.90
2023-02-14T20:27:02.527Z,18.33
2023-02-14T20:29:31.942Z,16.75
2023-02-14T20:32:03.658Z,17.30
2023-02-14T20:34:32.378Z,18.42
2023-02-14T20:37:00.936Z,18.25
2023-02-14T20:39:31.077Z,18.30
2023-02-14T20:42:01.946Z,19.25
2023-02-14T20:44:30.776Z,19.33
2023-02-14T20:46:59.673Z,19.50
2023-02-14T20:49:30.771Z,19.65
2023-02-14T20:51:59.889Z,18.33
2023-02-14T20:54:30.144Z,18.63
2023-02-14T20:57:00.024Z,17.88
2023-02-14T20:59:28.895Z,19.08
2023-02-14T21:01:59.482Z,19.60
2023-02-14T21:04:28.846Z,19.60
2023-02-14T21:06:57.951Z,19.65
2023-02-14T21:09:27.071Z,19.42
2023-02-14T21:11:55.601Z,20.35
2023-02-14T21:14:25.444Z,19.92
2023-02-14T21:16:53.888Z,19.70
2023-02-14T21:19:22.412Z,19.23
2023-02-14T21:21:50.916Z,19.17
2023-02-14T21:24:19.468Z,19.92
2023-02-14T21:26:47.989Z,20.05
2023-02-14T21:29:16.539Z,18.65
2023-02-14T21:31:46.583Z,19.15
2023-02-14T21:34:17.154Z,18.63
2023-02-14T21:36:45.807Z,18.52
2023-02-14T21:39:14.793Z,18.77
2023-02-14T21:41:43.362Z,18.17
2023-02-14T21:44:31.879Z,19.92
2023-02-14T21:47:03.505Z,21.13
2023-02-14T21:49:49.753Z,19.92
2023-02-14T21:52:18.343Z,18.23
2023-02-14T21:54:46.923Z,20.67
2023-02-14T21:57:15.531Z,20.42
2023-02-14T21:59:44.108Z,18.92
2023-02-14T22:02:14.173Z,19.00
2023-02-14T22:04:44.258Z,16.98
2023-02-14T22:07:13.037Z,19.58
2023-02-14T22:09:42.137Z,19.00
2023-02-14T22:12:11.006Z,18.30
2023-02-14T22:14:39.881Z,20.67
2023-02-14T22:17:08.814Z,19.27
2023-02-14T22:19:39.153Z,19.25
2023-02-14T22:22:08.011Z,18.08
2023-02-14T22:24:36.671Z,20.42
2023-02-14T22:27:05.480Z,20.05
2023-02-14T22:29:34.118Z,20.67
2023-02-14T22:32:02.757Z,20.77
2023-02-14T22:34:31.430Z,20.45
2023-02-14T22:37:01.417Z,18.63
2023-02-14T22:39:30.030Z,20.48
2023-02-14T22:41:58.571Z,20.17
2023-02-14T22:44:27.275Z,22.15
2023-02-14T22:46:55.824Z,20.10
2023-02-14T22:49:24.464Z,21.23
2023-02-14T22:51:52.999Z,20.27
2023-02-14T22:54:23.236Z,21.30
2023-02-14T22:56:52.073Z,20.55
2023-02-14T22:59:22.738Z,20.52
2023-02-14T23:01:52.859Z,22.77
2023-02-14T23:04:24.477Z,19.70
2023-02-14T23:06:54.175Z,21.20
2023-02-14T23:09:24.894Z,22.13
2023-02-14T23:11:53.419Z,21.20
2023-02-14T23:14:39.527Z,22.02
2023-02-14T23:17:25.866Z,20.98
2023-02-14T23:20:11.856Z,21.80
2023-02-14T23:22:41.668Z,21.25
2023-02-14T23:25:13.218Z,22.08
2023-02-14T23:27:45.266Z,21.08
2023-02-14T23:30:16.232Z,20.92
2023-02-14T23:32:44.875Z,22.35
2023-02-14T23:35:13.741Z,20.88
2023-02-14T23:37:42.762Z,20.90
2023-02-14T23:40:13.320Z,21.25
2023-02-14T23:42:41.952Z,20.88
2023-02-14T23:45:27.914Z,21.20
2023-02-14T23:47:56.553Z,20.33
2023-02-14T23:50:25.162Z,20.95
2023-02-14T23:52:53.639Z,19.77
2023-02-14T23:55:23.630Z,19.77
2023-02-14T23:57:52.294Z,21.00
